sensor_id;sensor_type;location;lat;lon;timestamp;P1;durP1;ratioP1;P2;durP2;ratioP2
19969;SDS011;10146;47.754;9.566;2023-06-22T00:01:58;12.55;;;6.38;;
19969;SDS011;10146;47.754;9.566;2023-06-22T00:04:23;10.98;;;6.38;;
19969;SDS011;10146;47.754;9.566;2023-06-22T00:06:49;12.05;;;6.60;;
19969;SDS011;10146;47.754;9.566;2023-06-22T00:09:15;8.38;;;5.78;;
19969;SDS011;10146;47.754;9.566;2023-06-22T00:11:40;10.25;;;5.57;;
19969;SDS011;10146;47.754;9.566;2023-06-22T00:14:06;9.93;;;6.63;;
19969;SDS011;10146;47.754;9.566;2023-06-22T00:16:32;13.13;;;6.00;;
19969;SDS011;10146;47.754;9.566;2023-06-22T00:18:58;10.40;;;5.88;;
19969;SDS011;10146;47.754;9.566;2023-06-22T00:21:26;14.55;;;6.60;;
19969;SDS011;10146;47.754;9.566;2023-06-22T00:23:51;13.02;;;5.97;;
19969;SDS011;10146;47.754;9.566;2023-06-22T00:26:17;10.05;;;6.20;;
19969;SDS011;10146;47.754;9.566;2023-06-22T00:28:43;10.60;;;6.30;;
19969;SDS011;10146;47.754;9.566;2023-06-22T00:31:09;10.95;;;6.20;;
19969;SDS011;10146;47.754;9.566;2023-06-22T00:33:34;11.38;;;6.13;;
19969;SDS011;10146;47.754;9.566;2023-06-22T00:36:00;11.38;;;5.85;;
19969;SDS011;10146;47.754;9.566;2023-06-22T00:38:27;15.48;;;5.43;;
19969;SDS011;10146;47.754;9.566;2023-06-22T00:40:53;10.13;;;6.63;;
19969;SDS011;10146;47.754;9.566;2023-06-22T00:43:19;10.45;;;6.13;;
19969;SDS011;10146;47.754;9.566;2023-06-22T00:45:45;8.77;;;5.75;;
19969;SDS011;10146;47.754;9.566;2023-06-22T00:48:11;9.32;;;6.07;;
19969;SDS011;10146;47.754;9.566;2023-06-22T00:50:38;9.38;;;5.82;;
19969;SDS011;10146;47.754;9.566;2023-06-22T00:53:05;14.20;;;6.80;;
19969;SDS011;10146;47.754;9.566;2023-06-22T00:55:36;11.68;;;6.18;;
19969;SDS011;10146;47.754;9.566;2023-06-22T00:58:04;11.15;;;5.32;;
19969;SDS011;10146;47.754;9.566;2023-06-22T01:00:35;9.00;;;5.18;;
19969;SDS011;10146;47.754;9.566;2023-06-22T01:03:01;13.05;;;6.45;;
19969;SDS011;10146;47.754;9.566;2023-06-22T01:05:33;10.98;;;5.93;;
19969;SDS011;10146;47.754;9.566;2023-06-22T01:08:12;9.77;;;6.00;;
19969;SDS011;10146;47.754;9.566;2023-06-22T01:15:59;14.98;;;6.85;;
19969;SDS011;10146;47.754;9.566;2023-06-22T01:18:40;11.27;;;5.90;;
19969;SDS011;10146;47.754;9.566;2023-06-22T01:21:07;9.20;;;5.85;;
19969;SDS011;10146;47.754;9.566;2023-06-22T01:26:42;11.02;;;6.32;;
19969;SDS011;10146;47.754;9.566;2023-06-22T01:29:17;12.27;;;7.22;;
19969;SDS011;10146;47.754;9.566;2023-06-22T01:31:44;11.20;;;6.20;;
19969;SDS011;10146;47.754;9.566;2023-06-22T01:34:10;10.93;;;6.00;;
19969;SDS011;10146;47.754;9.566;2023-06-22T01:36:37;12.02;;;7.00;;
19969;SDS011;10146;47.754;9.566;2023-06-22T01:39:04;13.68;;;6.88;;
19969;SDS011;10146;47.754;9.566;2023-06-22T01:41:37;12.27;;;6.53;;
19969;SDS011;10146;47.754;9.566;2023-06-22T01:44:05;12.73;;;6.75;;
19969;SDS011;10146;47.754;9.566;2023-06-22T01:46:33;8.70;;;5.40;;
19969;SDS011;10146;47.754;9.566;2023-06-22T01:49:00;16.75;;;7.10;;
19969;SDS011;10146;47.754;9.566;2023-06-22T01:51:30;14.02;;;6.80;;
19969;SDS011;10146;47.754;9.566;2023-06-22T01:53:56;10.50;;;6.32;;
19969;SDS011;10146;47.754;9.566;2023-06-22T01:56:21;12.73;;;7.30;;
19969;SDS011;10146;47.754;9.566;2023-06-22T02:02:07;9.73;;;6.78;;
19969;SDS011;10146;47.754;9.566;2023-06-22T02:04:42;11.70;;;7.20;;
19969;SDS011;10146;47.754;9.566;2023-06-22T02:07:13;9.80;;;6.43;;
19969;SDS011;10146;47.754;9.566;2023-06-22T02:09:42;11.93;;;7.10;;
19969;SDS011;10146;47.754;9.566;2023-06-22T02:12:11;10.10;;;6.18;;
19969;SDS011;10146;47.754;9.566;2023-06-22T02:14:38;12.00;;;6.65;;
19969;SDS011;10146;47.754;9.566;2023-06-22T02:17:05;11.95;;;6.85;;
19969;SDS011;10146;47.754;9.566;2023-06-22T02:19:36;13.35;;;7.20;;
19969;SDS011;10146;47.754;9.566;2023-06-22T02:22:02;11.65;;;6.70;;
19969;SDS011;10146;47.754;9.566;2023-06-22T02:24:28;13.20;;;7.95;;
19969;SDS011;10146;47.754;9.566;2023-06-22T02:26:56;16.27;;;7.40;;
19969;SDS011;10146;47.754;9.566;2023-06-22T02:29:23;11.50;;;7.50;;
19969;SDS011;10146;47.754;9.566;2023-06-22T02:31:48;11.80;;;7.30;;
19969;SDS011;10146;47.754;9.566;2023-06-22T02:34:14;11.07;;;7.45;;
19969;SDS011;10146;47.754;9.566;2023-06-22T02:36:43;12.43;;;7.65;;
19969;SDS011;10146;47.754;9.566;2023-06-22T02:39:21;10.77;;;7.50;;
19969;SDS011;10146;47.754;9.566;2023-06-22T02:41:50;13.85;;;8.23;;
19969;SDS011;10146;47.754;9.566;2023-06-22T02:44:19;14.35;;;8.77;;
19969;SDS011;10146;47.754;9.566;2023-06-22T02:46:45;14.20;;;8.35;;
19969;SDS011;10146;47.754;9.566;2023-06-22T02:49:12;14.15;;;7.47;;
19969;SDS011;10146;47.754;9.566;2023-06-22T02:51:39;13.80;;;7.95;;
19969;SDS011;10146;47.754;9.566;2023-06-22T02:54:06;10.88;;;7.80;;
19969;SDS011;10146;47.754;9.566;2023-06-22T02:56:32;14.45;;;7.82;;
19969;SDS011;10146;47.754;9.566;2023-06-22T02:58:58;11.57;;;8.50;;
19969;SDS011;10146;47.754;9.566;2023-06-22T03:01:27;12.38;;;8.45;;
19969;SDS011;10146;47.754;9.566;2023-06-22T03:03:53;14.55;;;8.00;;
19969;SDS011;10146;47.754;9.566;2023-06-22T03:06:19;12.07;;;8.60;;
19969;SDS011;10146;47.754;9.566;2023-06-22T03:08:48;13.25;;;8.55;;
19969;SDS011;10146;47.754;9.566;2023-06-22T03:11:15;11.40;;;6.85;;
19969;SDS011;10146;47.754;9.566;2023-06-22T03:13:40;12.10;;;7.32;;
19969;SDS011;10146;47.754;9.566;2023-06-22T03:16:06;12.38;;;8.45;;
19969;SDS011;10146;47.754;9.566;2023-06-22T03:18:32;13.68;;;9.07;;
19969;SDS011;10146;47.754;9.566;2023-06-22T03:20:57;13.50;;;8.50;;
19969;SDS011;10146;47.754;9.566;2023-06-22T03:23:23;16.10;;;8.40;;
19969;SDS011;10146;47.754;9.566;2023-06-22T03:25:49;17.88;;;9.48;;
19969;SDS011;10146;47.754;9.566;2023-06-22T03:28:14;12.73;;;8.75;;
19969;SDS011;10146;47.754;9.566;2023-06-22T03:30:40;13.82;;;8.48;;
19969;SDS011;10146;47.754;9.566;2023-06-22T03:33:05;14.23;;;7.32;;
19969;SDS011;10146;47.754;9.566;2023-06-22T03:35:31;11.10;;;8.38;;
19969;SDS011;10146;47.754;9.566;2023-06-22T03:37:56;11.10;;;7.40;;
19969;SDS011;10146;47.754;9.566;2023-06-22T03:40:22;12.48;;;7.45;;
19969;SDS011;10146;47.754;9.566;2023-06-22T03:42:48;9.55;;;5.72;;
19969;SDS011;10146;47.754;9.566;2023-06-22T03:45:13;12.95;;;7.85;;
19969;SDS011;10146;47.754;9.566;2023-06-22T03:47:39;17.60;;;9.45;;
19969;SDS011;10146;47.754;9.566;2023-06-22T03:50:05;12.77;;;8.50;;
19969;SDS011;10146;47.754;9.566;2023-06-22T03:52:31;11.75;;;7.20;;
19969;SDS011;10146;47.754;9.566;2023-06-22T03:54:57;10.85;;;7.03;;
19969;SDS011;10146;47.754;9.566;2023-06-22T03:57:23;12.75;;;6.75;;
19969;SDS011;10146;47.754;9.566;2023-06-22T03:59:49;11.88;;;8.10;;
19969;SDS011;10146;47.754;9.566;2023-06-22T04:02:15;9.85;;;7.47;;
19969;SDS011;10146;47.754;9.566;2023-06-22T04:04:40;12.95;;;8.45;;
19969;SDS011;10146;47.754;9.566;2023-06-22T04:07:06;11.18;;;7.68;;
19969;SDS011;10146;47.754;9.566;2023-06-22T04:09:32;11.40;;;7.32;;
19969;SDS011;10146;47.754;9.566;2023-06-22T04:11:58;13.95;;;7.55;;
19969;SDS011;10146;47.754;9.566;2023-06-22T04:14:23;13.10;;;7.60;;
19969;SDS011;10146;47.754;9.566;2023-06-22T04:16:49;11.77;;;7.40;;
19969;SDS011;10146;47.754;9.566;2023-06-22T04:19:15;14.30;;;7.20;;
19969;SDS011;10146;47.754;9.566;2023-06-22T04:21:42;11.43;;;7.75;;
19969;SDS011;10146;47.754;9.566;2023-06-22T04:24:09;10.48;;;8.15;;
19969;SDS011;10146;47.754;9.566;2023-06-22T04:26:35;11.55;;;7.35;;
19969;SDS011;10146;47.754;9.566;2023-06-22T04:29:02;13.23;;;8.30;;
19969;SDS011;10146;47.754;9.566;2023-06-22T04:31:30;12.13;;;8.02;;
19969;SDS011;10146;47.754;9.566;2023-06-22T04:34:02;14.13;;;8.23;;
19969;SDS011;10146;47.754;9.566;2023-06-22T04:36:35;9.38;;;7.20;;
19969;SDS011;10146;47.754;9.566;2023-06-22T04:39:05;12.27;;;7.22;;
19969;SDS011;10146;47.754;9.566;2023-06-22T04:41:38;8.57;;;6.57;;
19969;SDS011;10146;47.754;9.566;2023-06-22T04:44:11;10.48;;;7.88;;
19969;SDS011;10146;47.754;9.566;2023-06-22T04:46:37;13.25;;;7.30;;
19969;SDS011;10146;47.754;9.566;2023-06-22T04:49:04;10.93;;;8.07;;
19969;SDS011;10146;47.754;9.566;2023-06-22T04:51:35;10.68;;;7.43;;
19969;SDS011;10146;47.754;9.566;2023-06-22T04:54:04;10.13;;;6.07;;
19969;SDS011;10146;47.754;9.566;2023-06-22T04:56:30;9.43;;;7.30;;
19969;SDS011;10146;47.754;9.566;2023-06-22T04:58:56;10.57;;;6.90;;
19969;SDS011;10146;47.754;9.566;2023-06-22T05:01:22;11.25;;;8.43;;
19969;SDS011;10146;47.754;9.566;2023-06-22T05:03:48;13.80;;;8.32;;
19969;SDS011;10146;47.754;9.566;2023-06-22T05:06:14;12.13;;;8.95;;
19969;SDS011;10146;47.754;9.566;2023-06-22T05:08:40;12.43;;;9.00;;
19969;SDS011;10146;47.754;9.566;2023-06-22T05:11:06;12.75;;;8.43;;
19969;SDS011;10146;47.754;9.566;2023-06-22T05:13:32;9.35;;;6.30;;
19969;SDS011;10146;47.754;9.566;2023-06-22T05:15:58;13.15;;;8.48;;
19969;SDS011;10146;47.754;9.566;2023-06-22T05:18:30;11.00;;;7.38;;
19969;SDS011;10146;47.754;9.566;2023-06-22T05:20:55;9.80;;;5.65;;
19969;SDS011;10146;47.754;9.566;2023-06-22T05:23:22;12.48;;;7.35;;
19969;SDS011;10146;47.754;9.566;2023-06-22T05:25:48;13.50;;;6.93;;
19969;SDS011;10146;47.754;9.566;2023-06-22T05:28:14;11.02;;;8.32;;
19969;SDS011;10146;47.754;9.566;2023-06-22T05:30:39;13.02;;;8.80;;
19969;SDS011;10146;47.754;9.566;2023-06-22T05:33:06;13.52;;;9.50;;
19969;SDS011;10146;47.754;9.566;2023-06-22T05:35:31;12.80;;;7.88;;
19969;SDS011;10146;47.754;9.566;2023-06-22T05:37:57;10.73;;;9.23;;
19969;SDS011;10146;47.754;9.566;2023-06-22T05:40:23;12.05;;;8.15;;
19969;SDS011;10146;47.754;9.566;2023-06-22T05:42:48;14.35;;;8.38;;
19969;SDS011;10146;47.754;9.566;2023-06-22T05:45:14;12.30;;;8.02;;
19969;SDS011;10146;47.754;9.566;2023-06-22T05:47:40;11.57;;;8.07;;
19969;SDS011;10146;47.754;9.566;2023-06-22T05:50:05;14.10;;;8.13;;
19969;SDS011;10146;47.754;9.566;2023-06-22T05:52:33;11.07;;;8.05;;
19969;SDS011;10146;47.754;9.566;2023-06-22T05:54:59;12.93;;;8.40;;
19969;SDS011;10146;47.754;9.566;2023-06-22T05:57:24;12.73;;;8.52;;
19969;SDS011;10146;47.754;9.566;2023-06-22T05:59:50;13.40;;;9.48;;
19969;SDS011;10146;47.754;9.566;2023-06-22T06:02:16;13.80;;;9.00;;
19969;SDS011;10146;47.754;9.566;2023-06-22T06:04:42;12.68;;;8.38;;
19969;SDS011;10146;47.754;9.566;2023-06-22T06:07:07;14.13;;;9.27;;
19969;SDS011;10146;47.754;9.566;2023-06-22T06:09:33;14.27;;;8.90;;
19969;SDS011;10146;47.754;9.566;2023-06-22T06:11:59;20.20;;;10.27;;
19969;SDS011;10146;47.754;9.566;2023-06-22T06:14:24;12.07;;;8.90;;
19969;SDS011;10146;47.754;9.566;2023-06-22T06:16:50;11.38;;;8.07;;
19969;SDS011;10146;47.754;9.566;2023-06-22T06:19:15;13.88;;;9.90;;
19969;SDS011;10146;47.754;9.566;2023-06-22T06:21:41;14.63;;;8.82;;
19969;SDS011;10146;47.754;9.566;2023-06-22T06:24:06;15.18;;;9.45;;
19969;SDS011;10146;47.754;9.566;2023-06-22T06:26:32;15.00;;;8.98;;
19969;SDS011;10146;47.754;9.566;2023-06-22T06:29:00;15.50;;;9.20;;
19969;SDS011;10146;47.754;9.566;2023-06-22T06:31:27;16.25;;;8.73;;
19969;SDS011;10146;47.754;9.566;2023-06-22T06:33:53;15.00;;;9.30;;
19969;SDS011;10146;47.754;9.566;2023-06-22T06:36:20;12.45;;;8.70;;
19969;SDS011;10146;47.754;9.566;2023-06-22T06:38:46;13.00;;;8.85;;
19969;SDS011;10146;47.754;9.566;2023-06-22T06:41:15;13.48;;;9.52;;
19969;SDS011;10146;47.754;9.566;2023-06-22T06:43:41;16.00;;;9.40;;
19969;SDS011;10146;47.754;9.566;2023-06-22T06:46:10;16.92;;;9.73;;
19969;SDS011;10146;47.754;9.566;2023-06-22T06:48:36;17.85;;;10.27;;
19969;SDS011;10146;47.754;9.566;2023-06-22T06:51:01;13.57;;;9.07;;
19969;SDS011;10146;47.754;9.566;2023-06-22T06:53:27;14.05;;;9.68;;
19969;SDS011;10146;47.754;9.566;2023-06-22T06:55:53;14.10;;;9.55;;
19969;SDS011;10146;47.754;9.566;2023-06-22T06:58:19;11.00;;;8.15;;
19969;SDS011;10146;47.754;9.566;2023-06-22T07:00:45;15.35;;;8.85;;
19969;SDS011;10146;47.754;9.566;2023-06-22T07:03:10;15.63;;;9.30;;
19969;SDS011;10146;47.754;9.566;2023-06-22T07:05:36;13.48;;;9.80;;
19969;SDS011;10146;47.754;9.566;2023-06-22T07:08:02;12.40;;;8.93;;
19969;SDS011;10146;47.754;9.566;2023-06-22T07:10:28;12.65;;;9.48;;
19969;SDS011;10146;47.754;9.566;2023-06-22T07:12:54;15.68;;;8.27;;
19969;SDS011;10146;47.754;9.566;2023-06-22T07:15:20;15.23;;;9.70;;
19969;SDS011;10146;47.754;9.566;2023-06-22T07:17:45;14.88;;;9.13;;
19969;SDS011;10146;47.754;9.566;2023-06-22T07:20:11;11.38;;;8.93;;
19969;SDS011;10146;47.754;9.566;2023-06-22T07:22:40;14.15;;;8.75;;
19969;SDS011;10146;47.754;9.566;2023-06-22T07:25:07;11.95;;;7.60;;
19969;SDS011;10146;47.754;9.566;2023-06-22T07:27:39;11.95;;;8.13;;
19969;SDS011;10146;47.754;9.566;2023-06-22T07:30:09;9.68;;;8.68;;
19969;SDS011;10146;47.754;9.566;2023-06-22T07:32:35;12.50;;;8.43;;
19969;SDS011;10146;47.754;9.566;2023-06-22T07:35:02;12.05;;;8.73;;
19969;SDS011;10146;47.754;9.566;2023-06-22T07:37:28;11.02;;;8.43;;
19969;SDS011;10146;47.754;9.566;2023-06-22T07:39:54;13.85;;;8.32;;
19969;SDS011;10146;47.754;9.566;2023-06-22T07:42:23;15.50;;;8.43;;
19969;SDS011;10146;47.754;9.566;2023-06-22T07:44:50;13.73;;;9.18;;
19969;SDS011;10146;47.754;9.566;2023-06-22T07:47:16;13.85;;;8.63;;
19969;SDS011;10146;47.754;9.566;2023-06-22T07:49:44;13.68;;;8.07;;
19969;SDS011;10146;47.754;9.566;2023-06-22T07:52:10;11.20;;;7.63;;
19969;SDS011;10146;47.754;9.566;2023-06-22T07:54:36;14.48;;;9.23;;
19969;SDS011;10146;47.754;9.566;2023-06-22T07:57:01;13.35;;;8.60;;
19969;SDS011;10146;47.754;9.566;2023-06-22T07:59:27;11.90;;;8.70;;
19969;SDS011;10146;47.754;9.566;2023-06-22T08:01:53;13.68;;;8.13;;
19969;SDS011;10146;47.754;9.566;2023-06-22T08:04:19;13.55;;;10.02;;
19969;SDS011;10146;47.754;9.566;2023-06-22T08:06:45;10.93;;;8.60;;
19969;SDS011;10146;47.754;9.566;2023-06-22T08:09:11;16.70;;;9.30;;
19969;SDS011;10146;47.754;9.566;2023-06-22T08:11:37;12.30;;;8.25;;
19969;SDS011;10146;47.754;9.566;2023-06-22T08:14:02;15.93;;;8.30;;
19969;SDS011;10146;47.754;9.566;2023-06-22T08:16:28;12.55;;;8.18;;
19969;SDS011;10146;47.754;9.566;2023-06-22T08:18:54;15.25;;;8.38;;
19969;SDS011;10146;47.754;9.566;2023-06-22T08:21:21;12.68;;;7.97;;
19969;SDS011;10146;47.754;9.566;2023-06-22T08:23:47;14.90;;;7.57;;
19969;SDS011;10146;47.754;9.566;2023-06-22T08:26:14;16.90;;;8.70;;
19969;SDS011;10146;47.754;9.566;2023-06-22T08:28:40;12.45;;;7.57;;
19969;SDS011;10146;47.754;9.566;2023-06-22T08:31:05;14.95;;;8.93;;
19969;SDS011;10146;47.754;9.566;2023-06-22T08:33:31;10.13;;;8.23;;
19969;SDS011;10146;47.754;9.566;2023-06-22T08:35:57;13.65;;;8.18;;
19969;SDS011;10146;47.754;9.566;2023-06-22T08:38:25;16.70;;;8.32;;
19969;SDS011;10146;47.754;9.566;2023-06-22T08:40:50;16.25;;;8.40;;
19969;SDS011;10146;47.754;9.566;2023-06-22T08:43:16;15.32;;;8.35;;
19969;SDS011;10146;47.754;9.566;2023-06-22T08:45:41;15.73;;;9.20;;
19969;SDS011;10146;47.754;9.566;2023-06-22T08:48:07;14.52;;;8.52;;
19969;SDS011;10146;47.754;9.566;2023-06-22T08:50:33;13.93;;;8.13;;
19969;SDS011;10146;47.754;9.566;2023-06-22T08:52:58;11.60;;;7.43;;
19969;SDS011;10146;47.754;9.566;2023-06-22T08:55:24;12.20;;;7.70;;
19969;SDS011;10146;47.754;9.566;2023-06-22T08:57:49;14.25;;;7.40;;
19969;SDS011;10146;47.754;9.566;2023-06-22T09:00:16;12.70;;;8.20;;
19969;SDS011;10146;47.754;9.566;2023-06-22T09:02:42;12.48;;;8.02;;
19969;SDS011;10146;47.754;9.566;2023-06-22T09:05:08;10.32;;;6.88;;
19969;SDS011;10146;47.754;9.566;2023-06-22T09:07:34;12.50;;;8.27;;
19969;SDS011;10146;47.754;9.566;2023-06-22T09:10:00;12.57;;;7.45;;
19969;SDS011;10146;47.754;9.566;2023-06-22T09:12:26;11.32;;;7.90;;
19969;SDS011;10146;47.754;9.566;2023-06-22T09:14:52;10.77;;;6.85;;
19969;SDS011;10146;47.754;9.566;2023-06-22T09:17:18;10.95;;;7.63;;
19969;SDS011;10146;47.754;9.566;2023-06-22T09:19:44;11.10;;;7.20;;
19969;SDS011;10146;47.754;9.566;2023-06-22T09:22:10;16.02;;;7.13;;
19969;SDS011;10146;47.754;9.566;2023-06-22T09:24:35;12.40;;;8.30;;
19969;SDS011;10146;47.754;9.566;2023-06-22T09:27:01;14.13;;;7.70;;
19969;SDS011;10146;47.754;9.566;2023-06-22T09:29:27;12.32;;;7.88;;
19969;SDS011;10146;47.754;9.566;2023-06-22T09:31:52;13.48;;;8.07;;
19969;SDS011;10146;47.754;9.566;2023-06-22T09:34:20;12.35;;;8.23;;
19969;SDS011;10146;47.754;9.566;2023-06-22T09:36:46;14.30;;;8.68;;
19969;SDS011;10146;47.754;9.566;2023-06-22T09:39:12;15.07;;;8.02;;
19969;SDS011;10146;47.754;9.566;2023-06-22T09:41:38;11.73;;;6.93;;
19969;SDS011;10146;47.754;9.566;2023-06-22T09:44:03;14.98;;;7.57;;
19969;SDS011;10146;47.754;9.566;2023-06-22T09:46:29;13.55;;;9.02;;
19969;SDS011;10146;47.754;9.566;2023-06-22T09:48:55;16.27;;;9.07;;
19969;SDS011;10146;47.754;9.566;2023-06-22T09:51:20;13.00;;;7.85;;
19969;SDS011;10146;47.754;9.566;2023-06-22T09:53:47;13.27;;;7.10;;
19969;SDS011;10146;47.754;9.566;2023-06-22T09:56:13;11.70;;;8.35;;
19969;SDS011;10146;47.754;9.566;2023-06-22T09:58:42;10.77;;;8.20;;
19969;SDS011;10146;47.754;9.566;2023-06-22T10:01:08;9.90;;;7.70;;
19969;SDS011;10146;47.754;9.566;2023-06-22T10:03:35;14.85;;;7.07;;
19969;SDS011;10146;47.754;9.566;2023-06-22T10:06:01;12.18;;;7.30;;
19969;SDS011;10146;47.754;9.566;2023-06-22T10:08:27;14.18;;;7.82;;
19969;SDS011;10146;47.754;9.566;2023-06-22T10:10:52;13.05;;;8.00;;
19969;SDS011;10146;47.754;9.566;2023-06-22T10:13:18;14.43;;;8.82;;
19969;SDS011;10146;47.754;9.566;2023-06-22T10:15:44;11.80;;;7.55;;
19969;SDS011;10146;47.754;9.566;2023-06-22T10:18:16;11.40;;;6.68;;
19969;SDS011;10146;47.754;9.566;2023-06-22T10:20:42;9.02;;;7.60;;
19969;SDS011;10146;47.754;9.566;2023-06-22T10:23:08;12.40;;;8.40;;
19969;SDS011;10146;47.754;9.566;2023-06-22T10:25:33;11.68;;;7.05;;
19969;SDS011;10146;47.754;9.566;2023-06-22T10:27:59;11.18;;;7.40;;
19969;SDS011;10146;47.754;9.566;2023-06-22T10:30:24;11.68;;;7.18;;
19969;SDS011;10146;47.754;9.566;2023-06-22T10:32:50;11.15;;;6.88;;
19969;SDS011;10146;47.754;9.566;2023-06-22T10:35:16;10.55;;;6.75;;
19969;SDS011;10146;47.754;9.566;2023-06-22T10:37:42;13.02;;;6.85;;
19969;SDS011;10146;47.754;9.566;2023-06-22T10:40:09;12.00;;;7.18;;
19969;SDS011;10146;47.754;9.566;2023-06-22T10:42:36;12.00;;;6.97;;
19969;SDS011;10146;47.754;9.566;2023-06-22T10:45:01;12.05;;;7.20;;
19969;SDS011;10146;47.754;9.566;2023-06-22T10:47:27;11.35;;;6.80;;
19969;SDS011;10146;47.754;9.566;2023-06-22T10:49:53;12.40;;;7.47;;
19969;SDS011;10146;47.754;9.566;2023-06-22T10:52:18;13.45;;;7.78;;
19969;SDS011;10146;47.754;9.566;2023-06-22T10:54:44;9.40;;;7.20;;
19969;SDS011;10146;47.754;9.566;2023-06-22T10:57:10;11.90;;;7.60;;
19969;SDS011;10146;47.754;9.566;2023-06-22T10:59:35;12.25;;;7.30;;
19969;SDS011;10146;47.754;9.566;2023-06-22T11:02:01;13.35;;;7.18;;
19969;SDS011;10146;47.754;9.566;2023-06-22T11:04:27;13.35;;;7.07;;
19969;SDS011;10146;47.754;9.566;2023-06-22T11:06:53;12.00;;;6.93;;
19969;SDS011;10146;47.754;9.566;2023-06-22T11:09:18;9.30;;;6.32;;
19969;SDS011;10146;47.754;9.566;2023-06-22T11:11:49;12.25;;;6.63;;
19969;SDS011;10146;47.754;9.566;2023-06-22T11:14:18;10.77;;;6.60;;
19969;SDS011;10146;47.754;9.566;2023-06-22T11:16:44;14.07;;;6.85;;
19969;SDS011;10146;47.754;9.566;2023-06-22T11:19:09;11.02;;;7.10;;
19969;SDS011;10146;47.754;9.566;2023-06-22T11:21:35;10.60;;;6.40;;
19969;SDS011;10146;47.754;9.566;2023-06-22T11:24:00;14.73;;;6.80;;
19969;SDS011;10146;47.754;9.566;2023-06-22T11:26:26;11.90;;;6.55;;
19969;SDS011;10146;47.754;9.566;2023-06-22T11:28:55;11.70;;;6.40;;
19969;SDS011;10146;47.754;9.566;2023-06-22T11:31:20;11.57;;;5.80;;
19969;SDS011;10146;47.754;9.566;2023-06-22T11:33:46;15.65;;;6.63;;
19969;SDS011;10146;47.754;9.566;2023-06-22T11:36:12;14.57;;;6.93;;
19969;SDS011;10146;47.754;9.566;2023-06-22T11:38:39;13.95;;;6.32;;
19969;SDS011;10146;47.754;9.566;2023-06-22T11:41:08;11.93;;;6.88;;
19969;SDS011;10146;47.754;9.566;2023-06-22T11:43:34;12.80;;;7.13;;
19969;SDS011;10146;47.754;9.566;2023-06-22T11:46:01;13.75;;;6.80;;
19969;SDS011;10146;47.754;9.566;2023-06-22T11:48:28;14.70;;;6.40;;
19969;SDS011;10146;47.754;9.566;2023-06-22T11:50:54;17.33;;;7.00;;
19969;SDS011;10146;47.754;9.566;2023-06-22T11:53:20;10.65;;;6.38;;
19969;SDS011;10146;47.754;9.566;2023-06-22T11:55:46;14.00;;;7.00;;
19969;SDS011;10146;47.754;9.566;2023-06-22T11:58:13;13.10;;;7.00;;
19969;SDS011;10146;47.754;9.566;2023-06-22T12:00:39;10.30;;;6.57;;
19969;SDS011;10146;47.754;9.566;2023-06-22T12:03:05;13.13;;;6.20;;
19969;SDS011;10146;47.754;9.566;2023-06-22T12:05:31;10.93;;;6.90;;
19969;SDS011;10146;47.754;9.566;2023-06-22T12:07:56;9.77;;;6.35;;
19969;SDS011;10146;47.754;9.566;2023-06-22T12:10:22;12.18;;;6.20;;
19969;SDS011;10146;47.754;9.566;2023-06-22T12:12:48;11.27;;;6.60;;
19969;SDS011;10146;47.754;9.566;2023-06-22T12:15:14;11.43;;;6.72;;
19969;SDS011;10146;47.754;9.566;2023-06-22T12:17:39;14.38;;;6.47;;
19969;SDS011;10146;47.754;9.566;2023-06-22T12:20:05;13.50;;;6.40;;
19969;SDS011;10146;47.754;9.566;2023-06-22T12:22:32;13.50;;;6.47;;
19969;SDS011;10146;47.754;9.566;2023-06-22T12:24:57;13.27;;;7.05;;
19969;SDS011;10146;47.754;9.566;2023-06-22T12:27:23;14.38;;;7.15;;
19969;SDS011;10146;47.754;9.566;2023-06-22T12:29:49;15.50;;;6.47;;
19969;SDS011;10146;47.754;9.566;2023-06-22T12:32:15;14.75;;;7.18;;
19969;SDS011;10146;47.754;9.566;2023-06-22T12:34:41;12.38;;;6.60;;
19969;SDS011;10146;47.754;9.566;2023-06-22T12:37:07;15.52;;;7.13;;
19969;SDS011;10146;47.754;9.566;2023-06-22T12:39:33;15.90;;;6.85;;
19969;SDS011;10146;47.754;9.566;2023-06-22T12:41:58;13.55;;;6.70;;
19969;SDS011;10146;47.754;9.566;2023-06-22T12:44:24;12.43;;;6.80;;
19969;SDS011;10146;47.754;9.566;2023-06-22T12:46:50;14.10;;;6.43;;
19969;SDS011;10146;47.754;9.566;2023-06-22T12:49:15;13.18;;;7.20;;
19969;SDS011;10146;47.754;9.566;2023-06-22T12:51:41;13.82;;;7.05;;
19969;SDS011;10146;47.754;9.566;2023-06-22T12:54:08;15.23;;;7.13;;
19969;SDS011;10146;47.754;9.566;2023-06-22T12:56:33;15.32;;;7.10;;
19969;SDS011;10146;47.754;9.566;2023-06-22T12:58:59;15.38;;;6.85;;
19969;SDS011;10146;47.754;9.566;2023-06-22T13:01:28;14.90;;;6.70;;
19969;SDS011;10146;47.754;9.566;2023-06-22T13:03:55;13.75;;;7.03;;
19969;SDS011;10146;47.754;9.566;2023-06-22T13:06:21;13.73;;;7.72;;
19969;SDS011;10146;47.754;9.566;2023-06-22T13:08:47;11.23;;;6.35;;
19969;SDS011;10146;47.754;9.566;2023-06-22T13:11:12;14.48;;;7.47;;
19969;SDS011;10146;47.754;9.566;2023-06-22T13:13:38;12.60;;;6.90;;
19969;SDS011;10146;47.754;9.566;2023-06-22T13:16:04;13.88;;;6.88;;
19969;SDS011;10146;47.754;9.566;2023-06-22T13:18:30;14.88;;;6.82;;
19969;SDS011;10146;47.754;9.566;2023-06-22T13:20:55;15.02;;;7.07;;
19969;SDS011;10146;47.754;9.566;2023-06-22T13:23:23;15.90;;;7.05;;
19969;SDS011;10146;47.754;9.566;2023-06-22T13:25:48;12.43;;;6.72;;
19969;SDS011;10146;47.754;9.566;2023-06-22T13:28:14;15.63;;;6.50;;
19969;SDS011;10146;47.754;9.566;2023-06-22T13:30:41;13.68;;;6.38;;
19969;SDS011;10146;47.754;9.566;2023-06-22T13:33:07;14.50;;;6.38;;
19969;SDS011;10146;47.754;9.566;2023-06-22T13:35:33;14.18;;;6.40;;
19969;SDS011;10146;47.754;9.566;2023-06-22T13:38:00;18.90;;;6.88;;
19969;SDS011;10146;47.754;9.566;2023-06-22T13:40:26;11.55;;;6.60;;
19969;SDS011;10146;47.754;9.566;2023-06-22T13:42:51;10.13;;;6.95;;
19969;SDS011;10146;47.754;9.566;2023-06-22T13:45:17;14.55;;;7.00;;
19969;SDS011;10146;47.754;9.566;2023-06-22T13:47:44;11.60;;;7.07;;
19969;SDS011;10146;47.754;9.566;2023-06-22T13:50:09;15.18;;;7.45;;
19969;SDS011;10146;47.754;9.566;2023-06-22T13:52:35;13.45;;;6.38;;
19969;SDS011;10146;47.754;9.566;2023-06-22T13:55:01;12.90;;;7.25;;
19969;SDS011;10146;47.754;9.566;2023-06-22T13:57:27;13.68;;;6.68;;
19969;SDS011;10146;47.754;9.566;2023-06-22T13:59:53;16.75;;;6.22;;
19969;SDS011;10146;47.754;9.566;2023-06-22T14:02:18;16.40;;;6.63;;
19969;SDS011;10146;47.754;9.566;2023-06-22T14:04:44;13.73;;;6.40;;
19969;SDS011;10146;47.754;9.566;2023-06-22T14:07:09;14.35;;;7.30;;
19969;SDS011;10146;47.754;9.566;2023-06-22T14:09:35;14.07;;;6.65;;
19969;SDS011;10146;47.754;9.566;2023-06-22T14:12:04;15.25;;;6.95;;
19969;SDS011;10146;47.754;9.566;2023-06-22T14:14:31;14.43;;;6.97;;
19969;SDS011;10146;47.754;9.566;2023-06-22T14:16:58;14.70;;;7.45;;
19969;SDS011;10146;47.754;9.566;2023-06-22T14:19:24;12.95;;;6.93;;
19969;SDS011;10146;47.754;9.566;2023-06-22T14:21:49;12.02;;;6.75;;
19969;SDS011;10146;47.754;9.566;2023-06-22T14:24:15;11.25;;;6.35;;
19969;SDS011;10146;47.754;9.566;2023-06-22T14:26:41;10.45;;;7.22;;
19969;SDS011;10146;47.754;9.566;2023-06-22T14:29:06;15.13;;;7.80;;
19969;SDS011;10146;47.754;9.566;2023-06-22T14:31:32;15.68;;;6.82;;
19969;SDS011;10146;47.754;9.566;2023-06-22T14:33:58;14.65;;;7.70;;
19969;SDS011;10146;47.754;9.566;2023-06-22T14:36:23;15.20;;;6.93;;
19969;SDS011;10146;47.754;9.566;2023-06-22T14:38:49;15.98;;;7.63;;
19969;SDS011;10146;47.754;9.566;2023-06-22T14:41:15;12.25;;;7.35;;
19969;SDS011;10146;47.754;9.566;2023-06-22T14:43:51;13.55;;;7.60;;